Time;durP1;ratioP1;P1;durP2;ratioP2;P2;SDS_P1;SDS_P2;PMS_P1;PMS_P2;Temp;Humidity;BMP_temperature;BMP_pressure;BME280_temperature;BME280_humidity;BME280_pressure;Samples;Min_cycle;Max_cycle;Signal;HPM_P1;HPM_P2
2021/08/29 00:00:15;;;;;;;3.47;0.75;;;;;;;27.55;36.53;96739.06;5015569;28;20037;-32
2021/08/29 00:02:41;;;;;;;2.85;0.75;;;;;;;27.55;36.55;96736.44;5012817;28;20079;-34
2021/08/29 00:05:06;;;;;;;1.50;0.90;;;;;;;27.54;36.60;96734.75;5011797;28;20032;-35
2021/08/29 00:07:32;;;;;;;1.60;0.90;;;;;;;27.55;36.61;96741.69;5011181;28;20032;-31
2021/08/29 00:09:57;;;;;;;1.50;0.65;;;;;;;27.53;36.57;96733.03;5008513;28;20475;-33
2021/08/29 00:12:23;;;;;;;2.10;0.60;;;;;;;27.52;36.64;96732.22;5008492;28;20530;-32
2021/08/29 00:14:48;;;;;;;2.60;0.80;;;;;;;27.51;36.67;96725.22;5011876;28;20033;-32
2021/08/29 00:17:13;;;;;;;1.25;0.70;;;;;;;27.54;36.61;96732.13;5010391;28;20030;-30
2021/08/29 00:19:39;;;;;;;2.25;0.60;;;;;;;27.53;36.52;96733.03;5019467;28;20033;-32
2021/08/29 00:22:05;;;;;;;2.28;0.90;;;;;;;27.53;36.57;96727.78;5011313;28;20826;-34
2021/08/29 00:24:30;;;;;;;2.60;0.70;;;;;;;27.53;36.59;96722.50;5011500;28;20040;-31
2021/08/29 00:26:55;;;;;;;1.50;0.73;;;;;;;27.53;36.58;96730.41;5006642;28;20796;-36
2021/08/29 00:29:21;;;;;;;2.50;0.60;;;;;;;27.53;36.56;96727.78;5015034;28;20021;-32
2021/08/29 00:31:46;;;;;;;2.92;0.60;;;;;;;27.53;36.55;96722.50;5013001;28;20038;-29
2021/08/29 00:34:12;;;;;;;0.95;0.70;;;;;;;27.53;36.47;96733.03;5012900;28;20033;-30
2021/08/29 00:36:37;;;;;;;2.75;1.00;;;;;;;27.54;36.57;96726.84;5014797;28;20025;-31
2021/08/29 00:39:02;;;;;;;3.35;0.70;;;;;;;27.53;36.54;96727.78;5011295;28;20040;-33
2021/08/29 00:41:28;;;;;;;3.15;0.70;;;;;;;27.53;36.56;96722.50;5006634;28;20029;-31
2021/08/29 00:43:54;;;;;;;1.05;0.73;;;;;;;27.52;36.54;96721.69;5011079;28;20064;-33
2021/08/29 00:46:20;;;;;;;1.73;0.85;;;;;;;27.50;36.54;96712.19;5011880;28;20491;-33
2021/08/29 00:48:45;;;;;;;2.58;0.93;;;;;;;27.52;36.56;96715.56;5011443;28;20025;-30
2021/08/29 00:51:13;;;;;;;0.85;0.70;;;;;;;27.53;36.62;96718.09;5011977;28;20563;-35
2021/08/29 00:53:41;;;;;;;1.58;0.57;;;;;;;27.52;36.57;96715.56;5010570;28;20029;-32
2021/08/29 00:56:07;;;;;;;2.50;0.50;;;;;;;27.52;36.48;96716.41;5006171;28;20415;-30
2021/08/29 00:58:32;;;;;;;0.93;0.60;;;;;;;27.53;36.54;96714.63;5008181;28;20161;-30
2021/08/29 01:00:58;;;;;;;0.70;0.60;;;;;;;27.53;36.73;96711.97;5012435;28;20041;-34
2021/08/29 01:03:25;;;;;;;0.90;0.57;;;;;;;27.52;36.46;96708.53;5013360;28;20053;-36
2021/08/29 01:06:00;;;;;;;2.70;0.70;;;;;;;27.51;36.48;96698.91;5015375;28;20033;-29
2021/08/29 01:08:26;;;;;;;1.63;0.55;;;;;;;27.53;36.46;96706.72;5006424;28;20115;-32
2021/08/29 01:10:56;;;;;;;1.73;0.77;;;;;;;27.52;36.50;96710.28;4993682;28;20037;-29
2021/08/29 01:13:27;;;;;;;1.17;0.65;;;;;;;27.51;36.67;96708.63;5015750;28;20056;-32
2021/08/29 01:15:57;;;;;;;1.23;0.70;;;;;;;27.50;36.51;96712.19;5012717;28;20040;-33
2021/08/29 01:18:24;;;;;;;1.48;0.80;;;;;;;27.51;36.53;96704.19;5009130;28;20270;-33
2021/08/29 01:21:04;;;;;;;1.13;0.80;;;;;;;27.51;36.45;96698.09;5014311;28;20108;-29
2021/08/29 01:23:35;;;;;;;0.70;0.63;;;;;;;27.52;36.50;96705.03;5011633;28;20411;-33
2021/08/29 01:26:09;;;;;;;1.67;0.70;;;;;;;27.50;36.35;96702.50;5011098;28;20625;-34
2021/08/29 01:28:55;;;;;;;3.05;1.00;;;;;;;27.50;36.47;96696.41;5000090;28;20033;-32
2021/08/29 01:31:22;;;;;;;1.40;0.70;;;;;;;27.50;36.62;96701.66;5005537;28;22103;-31
2021/08/29 01:33:48;;;;;;;0.65;0.43;;;;;;;27.52;36.42;96707.66;5012501;28;20071;-31
2021/08/29 01:36:13;;;;;;;1.40;0.77;;;;;;;27.50;36.50;96693.78;5019515;28;20399;-31
2021/08/29 01:38:39;;;;;;;2.58;0.60;;;;;;;27.50;36.53;96699.03;5005904;28;20060;-31
2021/08/29 01:41:04;;;;;;;1.45;0.73;;;;;;;27.50;36.55;96696.41;4992436;28;20128;-31
2021/08/29 01:43:30;;;;;;;1.17;0.70;;;;;;;27.50;36.55;96696.41;5009793;28;20045;-31
2021/08/29 01:45:55;;;;;;;2.17;0.68;;;;;;;27.49;36.54;96690.28;5012983;28;20029;-32
2021/08/29 01:48:21;;;;;;;0.90;0.70;;;;;;;27.49;36.39;96674.50;5009535;28;20079;-29
2021/08/29 01:50:46;;;;;;;1.77;0.68;;;;;;;27.50;36.49;96681.44;5009570;28;20036;-31
2021/08/29 01:53:12;;;;;;;2.03;0.70;;;;;;;27.49;36.44;96678.91;4997187;28;20038;-31
2021/08/29 01:55:37;;;;;;;0.60;0.60;;;;;;;27.50;36.52;96680.63;5013434;28;20025;-32
2021/08/29 01:58:03;;;;;;;2.00;0.60;;;;;;;27.50;36.28;96688.50;5013066;28;20519;-32
2021/08/29 02:00:28;;;;;;;1.55;0.70;;;;;;;27.48;36.48;96674.59;5012810;28;20107;-31
2021/08/29 02:02:53;;;;;;;1.40;0.63;;;;;;;27.47;36.58;96670.25;5013396;28;20609;-29
2021/08/29 02:05:19;;;;;;;2.05;0.40;;;;;;;27.49;36.54;96665.72;4995904;28;20034;-34
2021/08/29 02:07:47;;;;;;;1.38;0.80;;;;;;;27.49;36.49;96668.38;5007670;28;20053;-28
2021/08/29 02:10:13;;;;;;;0.70;0.55;;;;;;;27.49;36.39;96663.09;4984566;28;20017;-35
2021/08/29 02:12:43;;;;;;;1.38;0.60;;;;;;;27.48;36.45;96661.41;5008035;28;20516;-30
2021/08/29 02:15:13;;;;;;;3.30;0.80;;;;;;;27.47;36.44;96659.75;5012967;28;20547;-28
2021/08/29 02:17:39;;;;;;;0.60;0.60;;;;;;;27.49;36.42;96660.47;5010736;28;20168;-35
2021/08/29 02:20:06;;;;;;;0.70;0.50;;;;;;;27.48;36.40;96661.41;5013564;28;20937;-32
2021/08/29 02:22:33;;;;;;;0.60;0.50;;;;;;;27.48;36.50;96654.38;5011537;28;20033;-34
2021/08/29 02:24:58;;;;;;;6.25;0.63;;;;;;;27.48;36.43;96650.91;5010770;28;20018;-34
2021/08/29 02:27:23;;;;;;;0.70;0.68;;;;;;;27.48;36.45;96662.28;5010690;28;20036;-30
2021/08/29 02:29:49;;;;;;;0.77;0.73;;;;;;;27.46;36.35;96652.78;5008837;28;20944;-31
2021/08/29 02:32:16;;;;;;;1.02;0.60;;;;;;;27.47;36.48;96651.84;5010222;28;20038;-28
2021/08/29 02:34:41;;;;;;;1.08;0.70;;;;;;;27.48;36.38;96650.91;5013444;28;20037;-31
2021/08/29 02:37:08;;;;;;;1.23;0.70;;;;;;;27.48;36.46;96651.75;5006596;28;20476;-32
2021/08/29 02:39:35;;;;;;;3.45;0.90;;;;;;;27.47;36.48;96643.94;5021699;28;20021;-32
2021/08/29 02:42:00;;;;;;;1.85;0.60;;;;;;;27.48;36.39;96656.16;5006639;28;20072;-32
2021/08/29 02:44:25;;;;;;;0.52;0.50;;;;;;;27.48;36.36;96650.91;5002071;28;20029;-29
2021/08/29 02:46:51;;;;;;;0.73;0.50;;;;;;;27.47;36.35;96651.84;4986284;28;20040;-31
2021/08/29 02:49:20;;;;;;;2.50;0.73;;;;;;;27.47;36.56;96652.69;4984880;28;20692;-30
2021/08/29 02:51:48;;;;;;;1.83;0.70;;;;;;;27.47;36.41;96647.44;5024622;28;20061;-30
2021/08/29 02:54:14;;;;;;;1.25;0.73;;;;;;;27.48;36.51;96649.13;5012086;28;20605;-30
2021/08/29 02:56:39;;;;;;;1.95;0.80;;;;;;;27.48;36.58;96650.91;4992496;28;20037;-29
2021/08/29 02:59:05;;;;;;;1.35;0.65;;;;;;;27.48;36.43;96650.91;5005333;28;20037;-29
2021/08/29 03:01:30;;;;;;;1.77;0.80;;;;;;;27.47;36.52;96649.22;5008581;28;20091;-31
2021/08/29 03:03:56;;;;;;;0.77;0.43;;;;;;;27.47;36.51;96644.81;5009529;28;20096;-29
2021/08/29 03:06:21;;;;;;;1.80;0.77;;;;;;;27.47;36.42;96649.22;5011747;28;20041;-32
2021/08/29 03:08:47;;;;;;;1.15;0.73;;;;;;;27.47;36.42;96644.81;5011410;28;20087;-29
2021/08/29 03:11:12;;;;;;;1.48;0.60;;;;;;;27.46;36.40;96643.09;5009752;28;20037;-32
2021/08/29 03:13:38;;;;;;;2.60;0.90;;;;;;;27.46;36.43;96637.81;5006653;28;20037;-28
2021/08/29 03:16:04;;;;;;;1.13;0.70;;;;;;;27.46;36.44;96637.00;5027387;28;20033;-32
2021/08/29 03:18:29;;;;;;;0.73;0.60;;;;;;;27.47;36.42;96633.41;5011483;28;20026;-30
2021/08/29 03:20:55;;;;;;;0.80;0.68;;;;;;;27.45;36.41;96627.38;5003836;28;20026;-34
2021/08/29 03:23:20;;;;;;;1.38;0.60;;;;;;;27.47;36.32;96638.69;5011323;28;20121;-36
2021/08/29 03:25:46;;;;;;;0.77;0.60;;;;;;;27.46;36.49;96629.94;5009098;28;20029;-33
2021/08/29 03:28:11;;;;;;;1.45;0.80;;;;;;;27.47;36.44;96641.31;5008116;28;20084;-31
2021/08/29 03:30:40;;;;;;;1.20;0.60;;;;;;;27.46;36.49;96631.75;5011617;28;20044;-37
2021/08/29 03:33:05;;;;;;;1.23;0.60;;;;;;;27.46;36.44;96631.75;5011358;28;20018;-31
2021/08/29 03:35:30;;;;;;;1.10;0.60;;;;;;;27.47;36.44;96638.69;5006556;28;20030;-29
2021/08/29 03:37:56;;;;;;;1.15;0.60;;;;;;;27.46;36.38;96627.31;5000134;28;20659;-30
2021/08/29 03:40:21;;;;;;;1.30;0.65;;;;;;;27.47;36.48;96636.06;5011983;28;20045;-36
2021/08/29 03:42:47;;;;;;;0.80;0.75;;;;;;;27.47;36.43;96633.41;5015762;28;20037;-30
2021/08/29 03:45:12;;;;;;;0.90;0.70;;;;;;;27.47;36.29;96633.41;5016897;28;20635;-28
2021/08/29 03:47:38;;;;;;;0.98;0.50;;;;;;;27.47;36.35;96634.28;5015117;28;20483;-33
2021/08/29 03:50:04;;;;;;;0.52;0.50;;;;;;;27.47;36.34;96628.16;5013085;28;20079;-31
2021/08/29 03:52:30;;;;;;;0.77;0.65;;;;;;;27.47;36.48;96625.53;5014539;28;20030;-29
2021/08/29 03:54:55;;;;;;;1.05;0.70;;;;;;;27.46;36.39;96622.03;5017540;28;20025;-36
2021/08/29 03:57:21;;;;;;;0.55;0.55;;;;;;;27.47;36.45;96617.63;5010257;28;20487;-34
2021/08/29 03:59:46;;;;;;;0.93;0.60;;;;;;;27.47;36.31;96615.00;5012615;28;20036;-31
2021/08/29 04:02:12;;;;;;;1.95;0.77;;;;;;;27.44;36.27;96620.44;5015503;28;20463;-32
2021/08/29 04:04:38;;;;;;;1.33;0.60;;;;;;;27.46;36.46;96614.16;5014812;28;20112;-33
2021/08/29 04:07:04;;;;;;;1.00;0.70;;;;;;;27.46;36.45;96610.69;5010707;28;20025;-31
2021/08/29 04:09:33;;;;;;;0.88;0.63;;;;;;;27.46;36.35;96616.78;5011829;28;21678;-34
2021/08/29 04:12:02;;;;;;;0.60;0.55;;;;;;;27.45;36.43;96603.72;5010983;28;20104;-28
2021/08/29 04:14:28;;;;;;;0.75;0.55;;;;;;;27.46;36.47;96600.16;5032549;28;20025;-32
2021/08/29 04:16:54;;;;;;;0.82;0.43;;;;;;;27.45;36.43;96604.56;5006726;28;20037;-28
2021/08/29 04:19:20;;;;;;;0.50;0.50;;;;;;;27.45;36.45;96606.34;5010659;28;20029;-30
2021/08/29 04:21:46;;;;;;;0.60;0.60;;;;;;;27.47;36.52;96607.09;5010019;28;20076;-29
2021/08/29 04:24:11;;;;;;;0.90;0.50;;;;;;;27.46;36.47;96613.31;5015494;28;20033;-30
2021/08/29 04:26:37;;;;;;;1.60;0.70;;;;;;;27.45;36.52;96608.97;5012834;28;20033;-30
2021/08/29 04:29:03;;;;;;;0.80;0.52;;;;;;;27.45;36.42;96612.47;5009747;28;20084;-30
2021/08/29 04:31:29;;;;;;;1.85;0.47;;;;;;;27.46;36.44;96610.69;4991602;28;20036;-29
2021/08/29 04:33:55;;;;;;;0.45;0.40;;;;;;;27.46;36.40;96610.69;5013475;28;20221;-30
2021/08/29 04:36:20;;;;;;;0.50;0.50;;;;;;;27.46;36.49;96608.06;4989404;28;20535;-31
2021/08/29 04:38:46;;;;;;;1.17;0.40;;;;;;;27.44;36.25;96602.03;5014383;28;20329;-31
2021/08/29 04:41:11;;;;;;;0.35;0.35;;;;;;;27.46;36.53;96608.88;5008655;28;20407;-31
2021/08/29 04:43:36;;;;;;;0.60;0.60;;;;;;;27.46;36.44;96608.06;5012898;28;21068;-29
2021/08/29 04:46:04;;;;;;;1.75;0.60;;;;;;;27.45;36.43;96603.72;5013912;28;20025;-34
2021/08/29 04:48:29;;;;;;;1.70;0.50;;;;;;;27.45;36.35;96608.97;5015154;28;20306;-31
2021/08/29 04:50:55;;;;;;;0.60;0.60;;;;;;;27.45;36.44;96601.06;5015446;28;20033;-31
2021/08/29 04:53:20;;;;;;;0.80;0.45;;;;;;;27.45;36.46;96598.44;5015609;28;20029;-35
2021/08/29 04:55:45;;;;;;;0.65;0.55;;;;;;;27.44;36.44;96591.50;5011289;28;20679;-31
2021/08/29 04:58:11;;;;;;;0.88;0.60;;;;;;;27.44;36.44;96602.03;5006170;28;20671;-30
2021/08/29 05:00:36;;;;;;;0.70;0.65;;;;;;;27.43;36.53;96606.47;5014648;28;20025;-33
2021/08/29 05:03:02;;;;;;;0.63;0.50;;;;;;;27.43;36.37;96603.81;5013405;28;20034;-31
2021/08/29 05:05:27;;;;;;;1.05;0.90;;;;;;;27.43;36.54;96600.34;5009994;28;20056;-30
2021/08/29 05:07:53;;;;;;;0.95;0.50;;;;;;;27.44;36.49;96607.28;5010277;28;20025;-34
2021/08/29 05:10:18;;;;;;;0.60;0.50;;;;;;;27.43;36.66;96605.59;5010896;28;20424;-30
2021/08/29 05:12:43;;;;;;;0.77;0.52;;;;;;;27.43;36.61;96610.88;5014413;28;20045;-32
2021/08/29 05:15:10;;;;;;;0.57;0.50;;;;;;;27.41;36.44;96596.97;5009285;28;20122;-33
2021/08/29 05:17:35;;;;;;;1.25;0.70;;;;;;;27.42;36.49;96598.66;5006820;28;20060;-31
2021/08/29 05:20:01;;;;;;;0.40;0.40;;;;;;;27.42;36.45;96601.28;5014065;28;20318;-33
2021/08/29 05:22:26;;;;;;;1.25;0.63;;;;;;;27.42;36.45;96602.13;5009892;28;20029;-33
2021/08/29 05:24:52;;;;;;;0.90;0.70;;;;;;;27.41;36.46;96597.81;5011179;28;20049;-32
2021/08/29 05:27:17;;;;;;;0.98;0.57;;;;;;;27.42;36.27;96603.91;5007886;28;20021;-36
2021/08/29 05:29:42;;;;;;;0.70;0.50;;;;;;;27.43;36.37;96600.34;5014236;28;20677;-32
2021/08/29 05:32:08;;;;;;;0.60;0.50;;;;;;;27.42;36.39;96602.13;5010075;28;20026;-36
2021/08/29 05:34:33;;;;;;;0.57;0.57;;;;;;;27.41;36.38;96607.50;5024198;28;20037;-33
2021/08/29 05:36:59;;;;;;;0.93;0.50;;;;;;;27.42;36.70;96609.19;5012309;28;20021;-34
2021/08/29 05:39:25;;;;;;;0.45;0.45;;;;;;;27.42;36.48;96598.66;5010114;28;20112;-29
2021/08/29 05:41:50;;;;;;;1.67;0.63;;;;;;;27.40;36.39;96596.13;5018957;28;20030;-31
2021/08/29 05:44:16;;;;;;;1.05;0.77;;;;;;;27.41;36.49;96596.97;5010681;28;20346;-34
2021/08/29 05:46:41;;;;;;;0.50;0.50;;;;;;;27.41;36.49;96591.72;5014182;28;20025;-31
2021/08/29 05:49:06;;;;;;;0.50;0.50;;;;;;;27.41;36.46;96586.44;5014862;28;20751;-29
2021/08/29 05:51:32;;;;;;;0.40;0.40;;;;;;;27.42;36.54;96582.88;5012216;28;20021;-31
2021/08/29 05:53:57;;;;;;;1.05;0.50;;;;;;;27.41;36.44;96586.44;5008775;28;20487;-30
2021/08/29 05:56:23;;;;;;;0.77;0.50;;;;;;;27.41;36.44;96596.97;5010121;28;20026;-29
2021/08/29 05:58:48;;;;;;;0.50;0.50;;;;;;;27.42;36.48;96593.41;5009871;28;20044;-33
2021/08/29 06:01:15;;;;;;;1.17;0.65;;;;;;;27.42;36.50;96598.66;5010532;28;20546;-30
2021/08/29 06:03:40;;;;;;;0.65;0.50;;;;;;;27.41;36.55;96591.72;5014906;28;20026;-32
2021/08/29 06:06:06;;;;;;;0.60;0.60;;;;;;;27.39;36.46;96587.38;5008998;28;20506;-35
2021/08/29 06:08:31;;;;;;;2.17;0.63;;;;;;;27.39;36.51;96590.00;5004606;28;20521;-34
2021/08/29 06:11:00;;;;;;;1.15;0.40;;;;;;;27.40;36.45;96590.84;5015587;28;20586;-29
2021/08/29 06:13:25;;;;;;;1.48;0.50;;;;;;;27.36;36.60;96584.94;5010540;28;20459;-36
2021/08/29 06:15:50;;;;;;;0.88;0.40;;;;;;;27.39;36.49;96590.00;5009258;28;20038;-29
2021/08/29 06:18:16;;;;;;;0.60;0.60;;;;;;;27.38;36.50;96583.06;5006653;28;20036;-33
2021/08/29 06:20:41;;;;;;;2.20;0.52;;;;;;;27.39;36.55;96579.47;5031800;28;20045;-29
2021/08/29 06:23:07;;;;;;;0.75;0.60;;;;;;;27.39;36.50;96579.47;5020787;28;20034;-32
2021/08/29 06:25:32;;;;;;;1.55;0.63;;;;;;;27.40;36.60;96577.69;5012219;28;20029;-30
2021/08/29 06:27:58;;;;;;;1.08;0.57;;;;;;;27.39;36.52;96579.47;5005043;28;20540;-31
2021/08/29 06:30:23;;;;;;;0.80;0.60;;;;;;;27.37;36.47;96576.13;5007019;28;20042;-30
2021/08/29 06:32:49;;;;;;;3.25;0.57;;;;;;;27.39;36.47;96579.47;5005286;28;20037;-31
2021/08/29 06:35:14;;;;;;;3.88;1.55;;;;;;;27.39;36.47;96568.94;5014503;28;20037;-31
2021/08/29 06:37:39;;;;;;;2.55;1.20;;;;;;;27.39;36.44;96579.47;5009692;28;20036;-32
2021/08/29 06:40:05;;;;;;;6.47;1.90;;;;;;;27.40;36.67;96580.34;5006850;28;20063;-36
2021/08/29 06:42:31;;;;;;;9.35;2.35;;;;;;;27.39;36.72;96576.84;5011489;28;20033;-31
2021/08/29 06:44:56;;;;;;;7.28;1.95;;;;;;;27.38;36.76;96577.78;5011743;28;20561;-32
2021/08/29 06:47:21;;;;;;;13.90;3.17;;;;;;;27.37;36.60;96567.34;5006228;28;20034;-30
2021/08/29 06:49:47;;;;;;;10.68;3.40;;;;;;;27.39;36.86;96571.59;4999415;28;20046;-32
2021/08/29 06:52:12;;;;;;;13.23;3.60;;;;;;;27.39;36.78;96568.94;5006325;28;20060;-34
2021/08/29 06:54:38;;;;;;;10.85;3.35;;;;;;;27.39;36.67;96566.31;5020645;28;20094;-33
2021/08/29 06:57:03;;;;;;;11.85;3.38;;;;;;;27.38;36.63;96564.63;5004418;28;20033;-32
2021/08/29 06:59:29;;;;;;;12.18;3.53;;;;;;;27.40;36.59;96561.91;5006743;28;20040;-38
2021/08/29 07:01:54;;;;;;;13.38;3.63;;;;;;;27.39;36.62;96565.50;5007724;28;20732;-33
2021/08/29 07:04:19;;;;;;;13.38;3.60;;;;;;;27.39;36.70;96563.69;4990093;28;20396;-30
2021/08/29 07:06:45;;;;;;;9.18;3.38;;;;;;;27.39;36.67;96568.94;5006796;28;20056;-34
2021/08/29 07:09:10;;;;;;;10.07;3.67;;;;;;;27.39;36.67;96568.13;5006501;28;20041;-35
2021/08/29 07:11:36;;;;;;;12.52;3.22;;;;;;;27.39;36.82;96568.94;5010616;28;20029;-29
2021/08/29 07:14:01;;;;;;;10.73;3.30;;;;;;;27.38;36.64;96567.25;5008015;28;20037;-30
2021/08/29 07:16:27;;;;;;;10.02;3.38;;;;;;;27.37;36.81;96560.31;5011054;28;20079;-32
2021/08/29 07:18:53;;;;;;;8.68;3.40;;;;;;;27.38;36.70;96572.53;5011278;28;20048;-31
2021/08/29 07:21:18;;;;;;;12.35;3.58;;;;;;;27.38;36.78;96569.91;5013721;28;20033;-30
2021/08/29 07:23:43;;;;;;;10.02;3.40;;;;;;;27.38;36.64;96569.91;5014278;28;20837;-34
2021/08/29 07:26:13;;;;;;;10.68;2.95;;;;;;;27.38;36.73;96567.25;5013381;28;20116;-30
2021/08/29 07:28:40;;;;;;;6.95;3.05;;;;;;;27.38;36.64;96559.38;5010221;28;20027;-33
2021/08/29 07:31:06;;;;;;;5.63;2.75;;;;;;;27.37;36.71;96555.06;5006981;28;20037;-30
2021/08/29 07:33:31;;;;;;;7.70;2.53;;;;;;;27.38;36.50;96562.00;5010221;28;20106;-34
2021/08/29 07:35:56;;;;;;;6.38;2.63;;;;;;;27.38;36.60;96562.00;5007653;28;20033;-35
2021/08/29 07:38:22;;;;;;;8.38;2.78;;;;;;;27.36;36.62;96563.91;5008847;28;20044;-33
2021/08/29 07:40:47;;;;;;;6.55;3.00;;;;;;;27.37;36.76;96559.47;5009582;28;20025;-32
2021/08/29 07:43:12;;;;;;;9.30;3.20;;;;;;;27.37;36.84;96560.31;5009825;28;20036;-32
2021/08/29 07:45:38;;;;;;;8.38;3.05;;;;;;;27.37;36.83;96557.69;5011123;28;20446;-30
2021/08/29 07:48:04;;;;;;;10.10;3.15;;;;;;;27.37;36.73;96570.84;5008061;28;20041;-32
2021/08/29 07:50:29;;;;;;;10.52;3.42;;;;;;;27.36;36.83;96561.28;5010250;28;20033;-30
2021/08/29 07:52:54;;;;;;;9.30;2.97;;;;;;;27.37;36.68;96565.59;5009075;28;20083;-29
2021/08/29 07:55:20;;;;;;;6.88;2.47;;;;;;;27.37;36.95;96568.22;5010996;28;20025;-32
2021/08/29 07:57:45;;;;;;;6.68;2.63;;;;;;;27.38;36.84;96569.03;5014365;28;20297;-34
2021/08/29 08:00:11;;;;;;;5.78;2.63;;;;;;;27.38;36.98;96569.91;5019510;28;20483;-30
2021/08/29 08:02:37;;;;;;;7.65;2.58;;;;;;;27.38;37.00;96569.91;5009703;28;20025;-32
2021/08/29 08:05:02;;;;;;;7.43;2.70;;;;;;;27.37;36.98;96568.22;5016513;28;20084;-32
2021/08/29 08:07:28;;;;;;;8.30;2.95;;;;;;;27.37;36.98;96570.84;5015518;28;20040;-30
2021/08/29 08:09:53;;;;;;;7.55;2.65;;;;;;;27.37;37.01;96578.75;5018518;28;20052;-33
2021/08/29 08:12:18;;;;;;;7.43;2.38;;;;;;;27.36;37.08;96577.06;5014435;28;20030;-34
2021/08/29 08:14:44;;;;;;;6.47;2.40;;;;;;;27.38;36.94;96576.94;5016117;28;20084;-37
2021/08/29 08:17:09;;;;;;;6.18;2.30;;;;;;;27.37;36.97;96576.13;5011844;28;20732;-31
2021/08/29 08:19:35;;;;;;;8.18;2.15;;;;;;;27.37;37.08;96581.38;5010362;28;20040;-35
2021/08/29 08:22:01;;;;;;;28.15;2.10;;;;;;;27.37;36.85;96583.16;5008566;28;20062;-34
2021/08/29 08:24:26;;;;;;;11.18;2.20;;;;;;;27.38;36.71;96582.19;5010188;28;20060;-33
2021/08/29 08:26:51;;;;;;;15.77;2.60;;;;;;;27.38;36.69;96584.81;5010496;28;20420;-29
2021/08/29 08:29:17;;;;;;;7.93;1.88;;;;;;;27.38;36.74;96582.19;5015114;28;20392;-34
2021/08/29 08:31:42;;;;;;;10.75;1.40;;;;;;;27.37;36.60;96581.38;5011337;28;20030;-31
2021/08/29 08:34:08;;;;;;;4.50;1.45;;;;;;;27.33;36.58;96582.50;5007307;28;20042;-32
2021/08/29 08:36:33;;;;;;;2.25;1.00;;;;;;;27.25;36.12;96587.41;5010790;28;20029;-36
2021/08/29 08:39:00;;;;;;;1.30;1.05;;;;;;;27.14;36.22;96585.44;5022872;28;20029;-33
2021/08/29 08:41:26;;;;;;;1.65;1.00;;;;;;;27.03;36.27;96588.72;5007254;28;20687;-32
2021/08/29 08:43:51;;;;;;;1.00;0.93;;;;;;;26.88;36.32;96580.81;5009390;28;20033;-31
2021/08/29 08:46:20;;;;;;;1.13;0.80;;;;;;;26.77;36.63;96591.13;5016710;28;20033;-35
2021/08/29 08:48:48;;;;;;;0.43;0.43;;;;;;;26.64;36.89;96587.53;5016080;28;20033;-32
2021/08/29 08:51:13;;;;;;;0.77;0.63;;;;;;;26.52;37.12;96589.13;5034722;28;20127;-36
2021/08/29 08:53:39;;;;;;;1.48;0.77;;;;;;;26.41;37.12;96584.50;4993404;28;20038;-32
2021/08/29 08:56:05;;;;;;;0.95;0.50;;;;;;;26.33;37.35;96591.06;5006757;28;20033;-31
2021/08/29 08:58:30;;;;;;;3.30;0.40;;;;;;;26.28;37.64;96585.22;5006573;28;20040;-31
2021/08/29 09:00:56;;;;;;;0.95;0.57;;;;;;;26.29;37.50;96586.06;5007882;28;20473;-30
2021/08/29 09:03:21;;;;;;;3.70;0.80;;;;;;;26.29;37.66;96581.69;5010074;28;20108;-31
2021/08/29 09:05:47;;;;;;;15.15;2.72;;;;;;;26.30;37.74;96575.50;5009812;28;20032;-32
2021/08/29 09:08:12;;;;;;;12.05;2.33;;;;;;;26.33;37.80;96580.56;5008862;28;20518;-31
2021/08/29 09:10:37;;;;;;;24.88;3.50;;;;;;;26.38;37.70;96579.44;4998839;28;20091;-35
2021/08/29 09:13:04;;;;;;;31.23;4.38;;;;;;;26.41;37.72;96584.50;5015300;28;20083;-31
2021/08/29 09:15:30;;;;;;;15.98;3.83;;;;;;;26.45;37.67;96583.38;5015324;28;20057;-36
2021/08/29 09:17:55;;;;;;;10.77;3.42;;;;;;;26.48;37.60;96583.22;5014161;28;20108;-36
2021/08/29 09:20:39;;;;;;;12.85;3.03;;;;;;;26.51;37.55;96588.31;5017343;28;20032;-33
2021/08/29 09:23:09;;;;;;;18.08;3.50;;;;;;;26.55;37.50;96595.03;5016033;28;20051;-31
2021/08/29 09:25:40;;;;;;;19.17;3.22;;;;;;;26.58;37.50;96591.41;5016416;28;20027;-30
2021/08/29 09:28:09;;;;;;;10.80;2.72;;;;;;;26.60;37.41;96584.25;5013540;28;20033;-36
2021/08/29 09:30:34;;;;;;;11.10;3.22;;;;;;;26.63;37.38;96585.84;5011337;28;20033;-32
2021/08/29 09:33:01;;;;;;;10.13;2.75;;;;;;;26.66;37.52;96591.78;5012764;28;20033;-31
2021/08/29 09:35:32;;;;;;;12.55;2.72;;;;;;;26.69;37.28;96590.78;5013767;28;20036;-35
2021/08/29 09:37:57;;;;;;;12.35;3.20;;;;;;;26.71;37.34;96584.47;5017134;28;20029;-36
2021/08/29 09:40:23;;;;;;;11.30;2.78;;;;;;;26.73;37.26;96587.00;5011549;28;20060;-34
2021/08/29 09:42:49;;;;;;;8.25;2.58;;;;;;;26.75;37.27;96590.38;5014569;28;20064;-34
2021/08/29 09:45:28;;;;;;;10.25;2.33;;;;;;;26.76;37.25;96592.06;5012705;28;20037;-31
2021/08/29 09:47:59;;;;;;;12.77;2.60;;;;;;;26.78;37.22;96584.94;5017893;28;20659;-36
2021/08/29 09:50:25;;;;;;;11.00;2.60;;;;;;;26.79;37.23;96591.91;5014318;28;20040;-32
2021/08/29 09:53:10;;;;;;;10.48;2.60;;;;;;;26.81;37.26;96595.25;5012859;28;20073;-31
2021/08/29 09:55:41;;;;;;;7.13;2.33;;;;;;;26.84;37.07;96600.34;5014232;28;20030;-32
2021/08/29 09:58:38;;;;;;;10.23;2.40;;;;;;;26.85;37.28;96603.81;5017745;28;20033;-37
2021/08/29 10:01:09;;;;;;;7.10;2.28;;;;;;;26.86;37.17;96598.44;4993675;28;20041;-31
2021/08/29 10:03:40;;;;;;;7.53;2.28;;;;;;;26.87;37.23;96594.91;5014975;28;20063;-32
2021/08/29 10:06:17;;;;;;;7.95;2.25;;;;;;;26.88;37.00;96599.22;5012358;28;20041;-32
2021/08/29 10:08:44;;;;;;;7.38;2.47;;;;;;;26.91;37.22;96597.31;5016724;28;20026;-33
2021/08/29 10:11:10;;;;;;;4.80;2.00;;;;;;;26.91;37.19;96597.31;5013653;28;20036;-35
2021/08/29 10:13:37;;;;;;;8.35;2.47;;;;;;;26.92;37.20;96601.66;5016853;28;20044;-33
2021/08/29 10:16:03;;;;;;;5.07;1.92;;;;;;;26.93;37.20;96588.41;5012783;28;20026;-30
2021/08/29 10:18:29;;;;;;;5.65;2.00;;;;;;;26.94;37.09;96579.63;5014873;28;20099;-38
2021/08/29 10:20:54;;;;;;;5.85;2.22;;;;;;;26.96;37.11;96576.91;5018874;28;20467;-39
2021/08/29 10:23:19;;;;;;;7.93;2.40;;;;;;;26.96;37.08;96576.91;5033162;28;20514;-32
2021/08/29 10:25:45;;;;;;;7.40;1.98;;;;;;;26.97;37.17;96581.22;5020790;28;20033;-29
2021/08/29 10:28:12;;;;;;;3.80;1.58;;;;;;;26.98;37.15;96586.41;5007433;28;20033;-31
2021/08/29 10:30:39;;;;;;;7.00;1.70;;;;;;;26.98;37.09;96586.41;5032141;28;20033;-33
2021/08/29 10:33:04;;;;;;;6.82;1.95;;;;;;;27.00;37.05;96576.63;5011144;28;20124;-35
2021/08/29 10:35:31;;;;;;;5.93;1.90;;;;;;;27.02;37.03;96587.03;5014141;28;20099;-35
2021/08/29 10:37:57;;;;;;;6.47;2.05;;;;;;;27.01;37.12;96582.72;5014683;28;20088;-36
2021/08/29 10:40:23;;;;;;;6.97;1.75;;;;;;;27.02;37.19;96584.41;5013715;28;20452;-33
2021/08/29 10:42:48;;;;;;;4.55;1.98;;;;;;;27.02;37.02;96587.03;5011206;28;20403;-33
2021/08/29 10:45:13;;;;;;;4.97;1.98;;;;;;;27.03;37.12;96583.47;5015907;28;20086;-32
2021/08/29 10:47:40;;;;;;;3.95;1.65;;;;;;;27.03;37.05;96578.22;5013147;28;20615;-34
2021/08/29 10:50:09;;;;;;;6.75;1.98;;;;;;;27.05;37.07;96586.88;5012949;28;20144;-33
2021/08/29 10:52:35;;;;;;;3.65;1.80;;;;;;;27.05;36.99;96586.00;5014957;28;20466;-29
2021/08/29 10:55:03;;;;;;;3.72;1.58;;;;;;;27.05;37.10;96581.59;4996757;28;20037;-32
2021/08/29 10:57:33;;;;;;;3.38;1.80;;;;;;;27.07;36.98;96589.38;5014046;28;20040;-29
2021/08/29 11:00:08;;;;;;;5.35;1.55;;;;;;;27.08;37.21;96578.75;5015105;28;20087;-34
2021/08/29 11:02:42;;;;;;;3.97;1.40;;;;;;;27.08;37.31;96586.66;5017130;28;20881;-35
2021/08/29 11:05:28;;;;;;;3.53;1.60;;;;;;;27.08;37.06;96591.91;5017684;28;20041;-31
2021/08/29 11:07:57;;;;;;;6.22;1.88;;;;;;;27.08;37.19;96581.41;5005543;28;20048;-36
2021/08/29 11:10:41;;;;;;;4.10;1.40;;;;;;;27.09;37.04;96585.75;5014993;28;20040;-31
2021/08/29 11:13:28;;;;;;;4.20;1.60;;;;;;;27.10;37.16;96589.19;5015200;28;20506;-36
2021/08/29 11:16:25;;;;;;;3.80;1.45;;;;;;;27.10;37.18;96590.06;5014584;28;20096;-29
2021/08/29 11:19:02;;;;;;;4.47;1.58;;;;;;;27.10;37.15;96590.06;5000403;28;20692;-35
2021/08/29 11:21:48;;;;;;;4.50;1.52;;;;;;;27.09;37.13;96588.38;5015704;28;20033;-35
2021/08/29 11:24:13;;;;;;;4.05;1.30;;;;;;;27.10;37.18;96590.06;5014506;28;20041;-32
2021/08/29 11:26:42;;;;;;;2.45;1.27;;;;;;;27.11;37.02;96585.63;5013086;28;20029;-31
2021/08/29 11:29:53;;;;;;;3.00;1.33;;;;;;;27.10;37.13;96584.78;5016954;28;20037;-31